This is the latest recevied weather packets stored in our database for station/object WD9GET. If no packets are shown the sender has not sent any weather packets the latest 10 day(s).
| Time | Temp. | Humidity | Pressure | Rain* | Wind** | Luminosity | Snow |
|---|---|---|---|---|---|---|---|
| 1778248366 | 20° C | 99% | 1012.4 hPa | 0 mm | - | 37 W/m² | - |
| 1778248306 | 20° C | 99% | 1012.3 hPa | 0 mm | - | 37 W/m² | - |
| 1778248246 | 20° C | 99% | 1012.3 hPa | 0 mm | - | 34 W/m² | - |
| 1778248186 | 20° C | 99% | 1012.2 hPa | 0 mm | - | 35 W/m² | - |
| 1778248112 | 20° C | 99% | 1012.2 hPa | 0 mm | - | 36 W/m² | - |
| 1778248041 | 20° C | 99% | 1012.2 hPa | 0 mm | - | 33 W/m² | - |
| 1778247977 | 20° C | 99% | 1012.2 hPa | 0 mm | - | 30 W/m² | - |
| 1778247917 | 20° C | 99% | 1012.2 hPa | 0 mm | - | 26 W/m² | - |
| 1778247857 | 20° C | 99% | 1012.2 hPa | 0 mm | - | 22 W/m² | - |
| 1778247796 | 20° C | 99% | 1012.2 hPa | 0 mm | - | 22 W/m² | - |
| 1778247727 | 20° C | 99% | 1012.2 hPa | 0 mm | - | 24 W/m² | - |
| 1778247662 | 20° C | 99% | 1012.1 hPa | 0 mm | - | 26 W/m² | - |
| 1778247602 | 20° C | 99% | 1011.9 hPa | 0 mm | - | 41 W/m² | - |
| 1778247543 | 20° C | 99% | 1011.9 hPa | 0 mm | - | 41 W/m² | - |
| 1778247482 | 20° C | 99% | 1011.8 hPa | 0 mm | - | 64 W/m² | - |
| 1778247423 | 20° C | 99% | 1011.8 hPa | 0 mm | - | 64 W/m² | - |
| 1778247362 | 20° C | 98% | 1011.9 hPa | 0 mm | - | 70 W/m² | - |
| 1778247302 | 20° C | 98% | 1011.9 hPa | 0 mm | - | 79 W/m² | - |
| 1778247242 | 20° C | 98% | 1011.9 hPa | 0 mm | - | 79 W/m² | - |
| 1778247187 | 20° C | 99% | 1012.1 hPa | 0 mm | - | 72 W/m² | - |
| 1778247123 | 20° C | 99% | 1012.1 hPa | 0 mm | - | 72 W/m² | - |
| 1778247063 | 20° C | 98% | 1012.2 hPa | 0 mm | - | 63 W/m² | - |
| 1778247003 | 20° C | 98% | 1012.4 hPa | 0 mm | - | 52 W/m² | - |
| 1778246943 | 20° C | 98% | 1012.4 hPa | 0 mm | - | 52 W/m² | - |
| 1778246876 | 20° C | 98% | 1012.4 hPa | 0 mm | - | 42 W/m² | - |
* Rain latest hour (hover to see other rain measurements)
** Current wind speed in m/s (hover to see current wind gust speed)